DW8209 Gubbio IT current weather conditions

sailwx.info

Wind from 087 at 3 knots gusting 5

Air temperature 20.0° C
Dewpoint 16.4° C

Last reported at 2016-Jul-24 19:52 UTC.
Time now 2016-Jul-24 20:31 UTC

Location: N 43°19' E 012°34'.
View on Google Maps.

See reports from other nearby stations

  
Tides and Currents Weather Stations Pressure Air Temp Water Temp Dewpoint Dewpoint Depression Visibility Wind Speed Wind Dir Waves Ship Positions
date/time (UTC)wind fromknots sea level pressurealtimeterstation pressurevisibilityair tempwater tempwave heightnotes
2016-Jul-24 19:52 087 3 gusting 5 20.0
2016-Jul-24 19:37 081 5 gusting 9 20.0
2016-Jul-24 19:23 107 6 gusting 10 21.7
2016-Jul-24 19:07 163 4 gusting 11 22.2
2016-Jul-24 18:52 215 2 gusting 7 22.8
2016-Jul-24 18:37 309 23.9
2016-Jul-24 18:22 102 0 gusting 2 24.4
2016-Jul-24 18:07 074 2 gusting 6 24.4
2016-Jul-24 17:52 109 2 gusting 3 24.4
2016-Jul-24 17:37 116 2 gusting 6 25.0
2016-Jul-24 17:22 226 26.7
2016-Jul-24 17:07 272 0 gusting 1 27.2
2016-Jul-24 16:52 222 28.9
2016-Jul-24 16:37 221 0 gusting 1 29.4
2016-Jul-24 16:22 201 29.4
2016-Jul-24 16:07 179 29.4
2016-Jul-24 15:52 224 29.4
2016-Jul-24 15:37 105 0 gusting 2 28.3
2016-Jul-24 15:22 091 1 gusting 4 29.4
2016-Jul-24 15:07 145 0 gusting 3 29.4
2016-Jul-24 14:52 129 1 gusting 6 28.3
2016-Jul-24 14:37 070 2 gusting 5 28.3
2016-Jul-24 14:22 098 2 gusting 4 28.9
2016-Jul-24 14:07 188 0 gusting 3 28.3
2016-Jul-24 13:52 234 0 gusting 3 26.7
2016-Jul-24 13:37 311 2 gusting 3 26.7
2016-Jul-24 13:22 271 1 gusting 3 26.7
2016-Jul-24 13:07 125 0 gusting 4 26.7
2016-Jul-24 12:52 115 0 gusting 4 25.6
2016-Jul-24 12:37 069 0 gusting 3 25.6
2016-Jul-24 12:21 243 24.4
2016-Jul-24 12:06 131 23.9
2016-Jul-24 11:51 131 22.8
2016-Jul-24 11:36 215 22.8
2016-Jul-24 11:21 144 22.8
2016-Jul-24 11:06 228 22.2
2016-Jul-24 10:51 114 21.7
2016-Jul-24 10:36 283 21.1
2016-Jul-24 10:21 095 21.1
2016-Jul-24 10:06 221 20.6
2016-Jul-24 09:51 343 20.0
2016-Jul-24 09:36 058 2 gusting 11 19.4
2016-Jul-24 09:21 191 3 gusting 6 18.9
2016-Jul-24 09:06 064 3 gusting 9 18.3
2016-Jul-24 08:51 086 0 gusting 1 18.9
2016-Jul-24 08:36 198 18.9
2016-Jul-24 08:21 301 18.9
2016-Jul-24 08:06 300 0 gusting 3 18.9
2016-Jul-24 07:51 256 0 gusting 3 19.4
2016-Jul-24 07:36 197 0 gusting 6 20.0
2016-Jul-24 07:21 321 3 gusting 6 20.6
2016-Jul-24 07:06 280 1 gusting 8 20.6
2016-Jul-24 06:51 193 20.6
2016-Jul-24 06:36 291 4 gusting 8 21.1
2016-Jul-24 06:21 273 6 gusting 13 21.1
2016-Jul-24 06:06 176 0 gusting 1 21.7
2016-Jul-24 05:51 154 20.0
2016-Jul-24 05:35 127 18.9
2016-Jul-24 05:20 146 18.3
2016-Jul-24 05:05 179 0 gusting 2 18.3
2016-Jul-24 04:50 190 2 18.3
2016-Jul-24 04:35
2016-Jul-24 04:20
2016-Jul-24 04:05
2016-Jul-24 03:50
2016-Jul-24 03:35
2016-Jul-24 03:20
2016-Jul-24 03:05
2016-Jul-24 02:50 339 18.9
2016-Jul-24 02:35 298 17.8
2016-Jul-24 02:20 301 18.3
2016-Jul-24 02:05 118 18.3
2016-Jul-24 01:50 221 18.3
2016-Jul-24 01:35 270 2 gusting 3 18.3
2016-Jul-24 01:20 287 1 gusting 3 18.3
2016-Jul-24 01:05 278 18.3
2016-Jul-24 00:50 351 18.3
2016-Jul-24 00:35 221 18.3
2016-Jul-24 00:20 198 18.3
2016-Jul-24 00:05 303 18.3
2016-Jul-23 23:50 257 18.3
2016-Jul-23 23:35 238 0 gusting 2 18.3
2016-Jul-23 23:19 300 0 gusting 0 18.3
2016-Jul-23 23:04 335 18.3
2016-Jul-23 22:49 194 18.3
2016-Jul-23 22:34 195 0 gusting 2 18.3
2016-Jul-23 22:19 245 18.3
2016-Jul-23 22:04 246 18.3
2016-Jul-23 21:49 273 18.3
2016-Jul-23 21:34 273 18.9
2016-Jul-23 21:19 273 18.9
2016-Jul-23 21:04 273 19.4
2016-Jul-23 20:49 273 19.4
2016-Jul-23 20:34 215 19.4
2016-Jul-23 20:20 263 20.0
2016-Jul-23 20:04 262 20.0
2016-Jul-23 19:49 252 20.0
2016-Jul-23 19:34 271 20.6
2016-Jul-23 19:19 283 0 gusting 2 21.1
2016-Jul-23 19:04 294 0 gusting 1 21.1
2016-Jul-23 18:49 269 21.7
2016-Jul-23 18:34 269 22.2
2016-Jul-23 18:19 287 22.2
2016-Jul-23 18:04 277 23.3
2016-Jul-23 17:49 276 23.9
2016-Jul-23 17:34 274 23.9
2016-Jul-23 17:19 235 23.9
2016-Jul-23 17:04 217 23.9
2016-Jul-23 16:49 215 0 gusting 2 24.4
2016-Jul-23 16:34 201 25.0
2016-Jul-23 16:19 187 24.4
2016-Jul-23 16:04 214 24.4
2016-Jul-23 15:49 288 24.4
2016-Jul-23 15:34 274 1 gusting 2 23.9
2016-Jul-23 15:19 238 1 gusting 3 23.9
2016-Jul-23 15:04 335 22.8
2016-Jul-23 14:49 078 22.8
2016-Jul-23 14:34 200 22.8
2016-Jul-23 14:19 203 2 gusting 4 22.8
2016-Jul-23 14:04 105 23.3
2016-Jul-23 13:49 057 23.9
2016-Jul-23 13:34 085 0 gusting 1 24.4
2016-Jul-23 13:19 214 0 gusting 2 25.0
2016-Jul-23 13:04 096 25.6
2016-Jul-23 12:49 075 3 gusting 6 26.1
2016-Jul-23 12:34 088 4 gusting 8 26.1
2016-Jul-23 12:19 087 5 gusting 7 26.1
2016-Jul-23 12:04 095 2 gusting 5 27.2
2016-Jul-23 11:49 197 27.8
2016-Jul-23 11:34 198 3 gusting 7 28.3
2016-Jul-23 11:19 139 1 gusting 5 28.3
2016-Jul-23 11:04 128 2 gusting 5 27.8
2016-Jul-23 10:49 273 28.3
2016-Jul-23 10:34 240 27.8
2016-Jul-23 10:19 101 1 gusting 2 26.7
2016-Jul-23 10:04 211 0 gusting 2 25.6
2016-Jul-23 09:49 117 1 gusting 3 25.6
2016-Jul-23 09:34 122 2 gusting 4 25.0
2016-Jul-23 09:19 105 2 gusting 4 25.0
2016-Jul-23 09:04 300 25.6
2016-Jul-23 08:49 312 0 gusting 2 25.6
2016-Jul-23 08:34 304 25.0
2016-Jul-23 08:18 325 0 gusting 2 23.9
2016-Jul-23 08:03 300 22.8
2016-Jul-23 07:48 295 21.7
2016-Jul-23 07:33 299 22.2
2016-Jul-23 07:18 331 22.2
2016-Jul-23 07:03 027 21.1
2016-Jul-23 06:48 027 0 gusting 2 20.6
2016-Jul-23 06:33 034 0 gusting 1 18.9
2016-Jul-23 06:18 297 17.2
2016-Jul-23 06:03 301 16.7
2016-Jul-23 05:48 020 16.1
2016-Jul-23 05:33 309 15.6
2016-Jul-23 05:18 301 15.6
2016-Jul-23 05:03 299 15.0
2016-Jul-23 04:48 300 15.0
2016-Jul-23 04:33
2016-Jul-23 04:18
2016-Jul-23 04:03
2016-Jul-23 03:48
2016-Jul-23 03:33
2016-Jul-23 03:17
2016-Jul-23 03:03 297 0 gusting 1 15.0
2016-Jul-23 02:47 298 15.6
2016-Jul-23 02:32 326 15.6
2016-Jul-23 02:17 311 15.6
2016-Jul-23 02:02 304 15.6
2016-Jul-23 01:47 298 0 gusting 1 15.6
2016-Jul-23 01:32 295 0 gusting 1 16.1
2016-Jul-23 01:17 020 1 gusting 3 16.1
2016-Jul-23 01:02 304 16.1
2016-Jul-23 00:47 303 16.7
2016-Jul-23 00:32 304 16.7
2016-Jul-23 00:17 304 17.2
2016-Jul-23 00:02 304 17.2
2016-Jul-22 23:47 302 0 gusting 1 17.8
2016-Jul-22 23:32 287 0 gusting 2 17.8
2016-Jul-22 23:17 291 17.8
2016-Jul-22 23:02 214 18.3
2016-Jul-22 22:47 214 18.3
2016-Jul-22 22:32 149 18.9
2016-Jul-22 22:17 150 20.0
2016-Jul-22 22:02 291 20.0
2016-Jul-22 21:46 276 20.6
2016-Jul-22 21:32 263 21.1
2016-Jul-22 21:20 274 21.7
2016-Jul-22 21:02 233 22.2
2016-Jul-22 20:46 091 23.3
2016-Jul-22 20:32 097 22.8
2016-Jul-22 20:16 238 23.3
2016-Jul-22 20:01 217 23.9